Pagrindinis puslapis
METAR-TAF:

METAR-TAF

Oro uostai :

Ringkiobingas-Skjern, Danija

platuma: 56-00N, ilguma: 008-21E, Aukštis: 5 m

Dabartinis oras

Ataskaita buvo paskelbta 16 valandos ir 3 minutes, ne 11:50 UTC
Vėjas 14 kt iš Vakarų/Pietvakarių
Temperatūra 6°C
Drėgmė 87%
Slėgis 1015 hPa
Matomumas 10 km arba daugiau
Su prošvaistėmis ne aukštis 3000 ft

METAR: EKVJ 291150Z 24014KT 9999 BKN030 06/04 Q1015

Laikas: 04:53 (03:53 UTC)


TAF: trūkstamas

Orai ataskaitas ir orų prognozės (METAR, TAF).

turimą stotys yra geltonos ir raudonos taškus žemėlapyje.

Perkelti pele per norėdami pamatyti stoties vardą.

Tada spustelėkite, norėdami matyti oro stebėjimo ir prognozės.

Norėdami pakeisti žemėlapį: spustelėkite ant žalios mygtukų su juodo kryžiaus žemyn,; žalią mygtuką su brūkšneliu, jei norite nutolinti; arba žalių rodyklių gretimoms žemėlapius.


METAR-TAF: